createdAt,value
2022-12-11T00:09:56.220Z,4.08
2022-12-11T00:20:05.500Z,4.53
2022-12-11T00:30:13.515Z,3.69
2022-12-11T00:40:22.851Z,4.54
2022-12-11T00:50:31.146Z,5.88
2022-12-11T01:00:39.233Z,5.38
2022-12-11T01:10:47.210Z,4.38
2022-12-11T01:20:55.254Z,5.42
2022-12-11T01:31:03.135Z,5.09
2022-12-11T01:41:11.056Z,6.05
2022-12-11T01:51:19.034Z,5.78
2022-12-11T02:01:27.017Z,9.64
2022-12-11T02:11:35.169Z,5.96
2022-12-11T02:21:43.464Z,6.47
2022-12-11T02:31:51.501Z,4.46
2022-12-11T02:41:51.847Z,5.06
2022-12-11T02:51:59.964Z,4.28
2022-12-11T03:02:08.176Z,3.21
2022-12-11T03:12:17.349Z,3.28
2022-12-11T03:22:25.498Z,4.58
2022-12-11T03:32:33.864Z,3.36
2022-12-11T03:42:42.016Z,3.41
2022-12-11T03:52:49.183Z,5.71
2022-12-11T04:02:57.275Z,7.03
2022-12-11T04:13:05.386Z,7.81
2022-12-11T04:23:13.284Z,5.6
2022-12-11T04:33:22.125Z,4.51
2022-12-11T04:43:30.130Z,6.32
2022-12-11T04:53:39.310Z,6.54
2022-12-11T05:03:47.743Z,6.67
2022-12-11T05:13:55.977Z,7.16
2022-12-11T05:24:04.000Z,4.82
2022-12-11T05:34:12.064Z,5.1
2022-12-11T05:44:19.997Z,5.45
2022-12-11T05:54:28.090Z,6.79
2022-12-11T06:04:36.157Z,6.39
2022-12-11T06:14:44.420Z,6.6
2022-12-11T06:24:52.976Z,6.14
2022-12-11T06:35:01.063Z,6.72
2022-12-11T06:45:09.275Z,7.23
2022-12-11T06:55:16.286Z,5.31
2022-12-11T07:05:25.550Z,7.76
2022-12-11T07:15:40.200Z,7.17
2022-12-11T07:25:43.023Z,5.53
2022-12-11T07:35:51.289Z,4.58
2022-12-11T07:46:00.154Z,4.56
2022-12-11T07:56:09.896Z,6.67
2022-12-11T08:06:18.050Z,5.27
2022-12-11T08:16:26.930Z,7.15
2022-12-11T08:26:35.424Z,6.31
2022-12-11T08:36:43.691Z,5.85
2022-12-11T08:46:52.648Z,5.44
2022-12-11T08:56:59.528Z,7.2
2022-12-11T09:07:08.600Z,11.35
2022-12-11T09:17:16.740Z,7.49
2022-12-11T09:27:24.910Z,4.52
2022-12-11T09:37:33.619Z,8.62
2022-12-11T09:47:41.858Z,7.54
2022-12-11T09:57:49.943Z,9.64
2022-12-11T10:07:58.256Z,10.26
2022-12-11T10:18:05.458Z,8.69
2022-12-11T10:28:13.268Z,10.04
2022-12-11T10:38:22.569Z,9.77
2022-12-11T10:48:31.891Z,10.17
2022-12-11T10:58:40.201Z,11.2
2022-12-11T11:08:50.073Z,9.49
2022-12-11T11:18:58.676Z,10.12
2022-12-11T11:29:12.082Z,9.68
2022-12-11T11:39:10.531Z,9.08
2022-12-11T11:49:18.948Z,8.21
2022-12-11T11:59:27.511Z,8.45
2022-12-11T12:09:38.872Z,9.8
2022-12-11T12:19:40.049Z,9.21
2022-12-11T12:29:48.126Z,13.7
2022-12-11T12:39:57.370Z,10.87
2022-12-11T12:50:05.364Z,10.38
2022-12-11T13:00:13.332Z,9.19
2022-12-11T13:10:22.127Z,8.28
2022-12-11T13:20:23.643Z,12.9
2022-12-11T13:30:22.599Z,10.24
2022-12-11T13:40:32.938Z,9.92
2022-12-11T13:50:32.479Z,9.85
2022-12-11T14:00:40.827Z,9.54
2022-12-11T14:10:48.940Z,11.25
2022-12-11T14:20:57.002Z,9.55
2022-12-11T14:31:05.381Z,11.23
2022-12-11T14:41:13.450Z,11.85
2022-12-11T14:51:21.746Z,14.58
2022-12-11T15:01:34.059Z,13.39
2022-12-11T15:11:56.376Z,12.98
2022-12-11T15:21:38.266Z,11.18
2022-12-11T15:31:46.402Z,12.28
2022-12-11T15:41:55.576Z,11.64
2022-12-11T15:52:03.813Z,13.05
2022-12-11T16:02:12.457Z,14.85
2022-12-11T16:12:25.294Z,13.14
2022-12-11T16:22:24.986Z,10.28
2022-12-11T16:32:33.767Z,11.46
2022-12-11T16:42:34.015Z,14.26
2022-12-11T16:52:43.589Z,14.76
2022-12-11T17:02:51.921Z,10.43
2022-12-11T17:13:00.498Z,11.63
2022-12-11T17:23:08.649Z,11.57
2022-12-11T17:33:16.857Z,14.15
2022-12-11T17:43:25.060Z,10.71
2022-12-11T17:53:33.024Z,13.39
2022-12-11T18:03:41.151Z,14.7
2022-12-11T18:13:49.181Z,12.63
2022-12-11T18:23:57.306Z,15.38
2022-12-11T18:34:08.173Z,17.18
2022-12-11T18:44:09.833Z,16.46
2022-12-11T18:54:18.137Z,14.06
2022-12-11T19:04:16.835Z,15.64
2022-12-11T19:14:51.350Z,18.14
2022-12-11T19:24:44.827Z,16.76
2022-12-11T19:34:40.883Z,13.96
2022-12-11T19:44:50.318Z,15.23
2022-12-11T19:55:05.446Z,15.28
2022-12-11T20:05:25.952Z,18.49
2022-12-11T20:15:32.209Z,14.08
2022-12-11T20:25:12.845Z,15.22
2022-12-11T20:35:21.845Z,15.73
2022-12-11T20:45:13.465Z,18.23
2022-12-11T20:55:21.279Z,18.22
2022-12-11T21:05:29.539Z,16.87
2022-12-11T21:15:37.889Z,17.01
2022-12-11T21:25:46.302Z,16.88
2022-12-11T21:35:54.811Z,17.36
2022-12-11T21:46:02.636Z,18.92
2022-12-11T21:56:10.067Z,14.93
2022-12-11T22:06:19.017Z,17.41
2022-12-11T22:16:27.261Z,15.91
2022-12-11T22:26:35.645Z,17.91
2022-12-11T22:36:44.738Z,14.47
2022-12-11T22:46:51.922Z,16.96
2022-12-11T22:57:07.754Z,18.07
2022-12-11T23:07:06.089Z,14.51
2022-12-11T23:17:14.249Z,13.83
2022-12-11T23:27:22.598Z,17.34
2022-12-11T23:37:30.984Z,15.56
2022-12-11T23:47:39.466Z,17.09
2022-12-11T23:57:47.524Z,17.49
